sensor_id;sensor_type;location;lat;lon;timestamp;pressure;altitude;pressure_sealevel;temperature;humidity
70407;BME280;57821;52.202;0.154;2023-04-10T00:01:51;101481.69;;;11.22;62.53
70407;BME280;57821;52.202;0.154;2023-04-10T00:04:38;101486.84;;;11.19;62.33
70407;BME280;57821;52.202;0.154;2023-04-10T00:07:25;101476.50;;;11.18;62.43
70407;BME280;57821;52.202;0.154;2023-04-10T00:10:12;101481.66;;;11.16;62.41
70407;BME280;57821;52.202;0.154;2023-04-10T00:12:59;101492.03;;;11.16;62.80
70407;BME280;57821;52.202;0.154;2023-04-10T00:15:46;101495.50;;;11.15;62.39
70407;BME280;57821;52.202;0.154;2023-04-10T00:18:33;101497.19;;;11.13;62.75
70407;BME280;57821;52.202;0.154;2023-04-10T00:21:20;101498.09;;;11.12;62.04
70407;BME280;57821;52.202;0.154;2023-04-10T00:24:06;101485.06;;;11.09;62.47
70407;BME280;57821;52.202;0.154;2023-04-10T00:26:53;101491.16;;;11.11;62.63
70407;BME280;57821;52.202;0.154;2023-04-10T00:29:40;101485.09;;;11.10;62.54
70407;BME280;57821;52.202;0.154;2023-04-10T00:32:27;101482.50;;;11.10;63.18
70407;BME280;57821;52.202;0.154;2023-04-10T00:35:14;101476.44;;;11.10;62.82
70407;BME280;57821;52.202;0.154;2023-04-10T00:38:01;101474.69;;;11.09;63.27
70407;BME280;57821;52.202;0.154;2023-04-10T00:40:48;101465.19;;;11.09;62.96
70407;BME280;57821;52.202;0.154;2023-04-10T00:43:35;101458.22;;;11.07;63.11
70407;BME280;57821;52.202;0.154;2023-04-10T00:46:22;101455.66;;;11.08;63.46
70407;BME280;57821;52.202;0.154;2023-04-10T00:49:09;101450.47;;;11.10;63.05
70407;BME280;57821;52.202;0.154;2023-04-10T00:51:56;101441.84;;;11.11;63.80
70407;BME280;57821;52.202;0.154;2023-04-10T00:54:44;101447.03;;;11.11;62.71
70407;BME280;57821;52.202;0.154;2023-04-10T00:57:32;101426.28;;;11.11;63.19
70407;BME280;57821;52.202;0.154;2023-04-10T01:00:19;101424.53;;;11.13;62.96
70407;BME280;57821;52.202;0.154;2023-04-10T01:03:08;101426.28;;;11.14;63.70
70407;BME280;57821;52.202;0.154;2023-04-10T01:09:02;101415.03;;;11.13;63.32
70407;BME280;57821;52.202;0.154;2023-04-10T01:12:03;101411.59;;;11.18;63.45
70407;BME280;57821;52.202;0.154;2023-04-10T01:14:59;101410.72;;;11.20;63.27
70407;BME280;57821;52.202;0.154;2023-04-10T01:18:10;101390.78;;;11.13;63.74
70407;BME280;57821;52.202;0.154;2023-04-10T01:21:01;101400.34;;;11.20;63.88
70407;BME280;57821;52.202;0.154;2023-04-10T01:30:02;101394.31;;;11.23;63.81
70407;BME280;57821;52.202;0.154;2023-04-10T01:32:54;101388.25;;;11.24;64.05
70407;BME280;57821;52.202;0.154;2023-04-10T01:35:47;101386.50;;;11.24;63.78
70407;BME280;57821;52.202;0.154;2023-04-10T01:38:36;101381.31;;;11.24;64.09
70407;BME280;57821;52.202;0.154;2023-04-10T01:41:25;101357.06;;;11.19;64.02
70407;BME280;57821;52.202;0.154;2023-04-10T01:44:14;101377.88;;;11.31;64.20
70407;BME280;57821;52.202;0.154;2023-04-10T01:47:03;101377.91;;;11.34;64.07
70407;BME280;57821;52.202;0.154;2023-04-10T01:49:53;101374.44;;;11.35;64.38
70407;BME280;57821;52.202;0.154;2023-04-10T01:52:41;101370.97;;;11.38;64.48
70407;BME280;57821;52.202;0.154;2023-04-10T01:55:40;101362.34;;;11.40;64.13
70407;BME280;57821;52.202;0.154;2023-04-10T01:58:29;101362.34;;;11.43;64.43
70407;BME280;57821;52.202;0.154;2023-04-10T02:01:19;101345.03;;;11.41;64.84
70407;BME280;57821;52.202;0.154;2023-04-10T02:04:15;101352.81;;;11.48;64.25
70407;BME280;57821;52.202;0.154;2023-04-10T02:07:09;101345.03;;;11.45;64.36
70407;BME280;57821;52.202;0.154;2023-04-10T02:10:03;101351.09;;;11.49;64.92
70407;BME280;57821;52.202;0.154;2023-04-10T02:12:58;101352.84;;;11.54;65.15
70407;BME280;57821;52.202;0.154;2023-04-10T02:15:49;101344.19;;;11.57;65.68
70407;BME280;57821;52.202;0.154;2023-04-10T02:18:40;101332.09;;;11.53;66.67
70407;BME280;57821;52.202;0.154;2023-04-10T02:21:28;101339.00;;;11.57;67.27
70407;BME280;57821;52.202;0.154;2023-04-10T02:24:15;101325.13;;;11.53;67.81
70407;BME280;57821;52.202;0.154;2023-04-10T02:27:02;101326.88;;;11.50;69.26
70407;BME280;57821;52.202;0.154;2023-04-10T02:29:49;101318.22;;;11.45;68.84
70407;BME280;57821;52.202;0.154;2023-04-10T02:32:36;101313.00;;;11.40;70.21
70407;BME280;57821;52.202;0.154;2023-04-10T02:35:26;101302.63;;;11.34;70.91
70407;BME280;57821;52.202;0.154;2023-04-10T02:38:14;101296.53;;;11.25;71.27
70407;BME280;57821;52.202;0.154;2023-04-10T02:41:03;101287.84;;;11.20;72.61
70407;BME280;57821;52.202;0.154;2023-04-10T02:43:50;101287.88;;;11.12;73.21
70407;BME280;57821;52.202;0.154;2023-04-10T02:46:43;101286.09;;;11.08;73.63
70407;BME280;57821;52.202;0.154;2023-04-10T02:49:32;101297.34;;;11.04;74.02
70407;BME280;57821;52.202;0.154;2023-04-10T02:52:26;101295.59;;;10.98;74.74
70407;BME280;57821;52.202;0.154;2023-04-10T02:55:13;101291.25;;;10.93;74.98
70407;BME280;57821;52.202;0.154;2023-04-10T02:58:00;101285.16;;;10.89;75.50
70407;BME280;57821;52.202;0.154;2023-04-10T03:00:48;101287.78;;;10.86;76.29
70407;BME280;57821;52.202;0.154;2023-04-10T03:03:41;101286.03;;;10.81;76.34
70407;BME280;57821;52.202;0.154;2023-04-10T03:06:29;101286.00;;;10.78;76.20
70407;BME280;57821;52.202;0.154;2023-04-10T03:09:17;101283.41;;;10.75;76.52
70407;BME280;57821;52.202;0.154;2023-04-10T03:12:03;101292.03;;;10.72;77.12
70407;BME280;57821;52.202;0.154;2023-04-10T03:14:50;101292.03;;;10.69;78.12
70407;BME280;57821;52.202;0.154;2023-04-10T03:17:37;101273.88;;;10.64;78.39
70407;BME280;57821;52.202;0.154;2023-04-10T03:20:25;101281.66;;;10.64;78.79
70407;BME280;57821;52.202;0.154;2023-04-10T03:23:12;101281.66;;;10.64;79.47
70407;BME280;57821;52.202;0.154;2023-04-10T03:25:59;101278.19;;;10.64;79.81
70407;BME280;57821;52.202;0.154;2023-04-10T03:28:48;101267.78;;;10.59;80.16
70407;BME280;57821;52.202;0.154;2023-04-10T03:31:35;101275.56;;;10.59;80.87
70407;BME280;57821;52.202;0.154;2023-04-10T03:34:22;101271.22;;;10.55;80.47
70407;BME280;57821;52.202;0.154;2023-04-10T03:37:09;101272.97;;;10.58;81.51
70407;BME280;57821;52.202;0.154;2023-04-10T03:39:56;101266.91;;;10.57;82.39
70407;BME280;57821;52.202;0.154;2023-04-10T03:42:43;101262.56;;;10.56;83.96
70407;BME280;57821;52.202;0.154;2023-04-10T03:45:30;101261.69;;;10.54;85.87
70407;BME280;57821;52.202;0.154;2023-04-10T03:48:18;101252.19;;;10.52;91.54
70407;BME280;57821;52.202;0.154;2023-04-10T03:51:06;101241.81;;;10.50;93.61
70407;BME280;57821;52.202;0.154;2023-04-10T03:53:53;101239.22;;;10.47;94.70
70407;BME280;57821;52.202;0.154;2023-04-10T03:56:40;101234.03;;;10.47;94.60
70407;BME280;57821;52.202;0.154;2023-04-10T03:59:27;101228.81;;;10.44;96.64
70407;BME280;57821;52.202;0.154;2023-04-10T04:02:27;101235.75;;;10.47;96.79
70407;BME280;57821;52.202;0.154;2023-04-10T04:05:14;101233.16;;;10.47;98.04
70407;BME280;57821;52.202;0.154;2023-04-10T04:08:04;101214.13;;;10.45;99.33
70407;BME280;57821;52.202;0.154;2023-04-10T04:10:57;101205.47;;;10.44;100.00
70407;BME280;57821;52.202;0.154;2023-04-10T04:14:13;101199.44;;;10.45;100.00
70407;BME280;57821;52.202;0.154;2023-04-10T04:17:07;101195.97;;;10.43;100.00
70407;BME280;57821;52.202;0.154;2023-04-10T04:20:12;101188.22;;;10.42;100.00
70407;BME280;57821;52.202;0.154;2023-04-10T04:23:02;101190.81;;;10.42;100.00
70407;BME280;57821;52.202;0.154;2023-04-10T04:25:52;101191.66;;;10.42;100.00
70407;BME280;57821;52.202;0.154;2023-04-10T04:29:06;101185.59;;;10.40;100.00
70407;BME280;57821;52.202;0.154;2023-04-10T04:32:24;101189.06;;;10.39;100.00
70407;BME280;57821;52.202;0.154;2023-04-10T04:35:34;101183.00;;;10.39;100.00
70407;BME280;57821;52.202;0.154;2023-04-10T04:38:35;101176.94;;;10.35;100.00
70407;BME280;57821;52.202;0.154;2023-04-10T04:41:57;101181.25;;;10.38;100.00
70407;BME280;57821;52.202;0.154;2023-04-10T04:44:55;101175.22;;;10.37;100.00
70407;BME280;57821;52.202;0.154;2023-04-10T04:47:54;101176.06;;;10.38;100.00
70407;BME280;57821;52.202;0.154;2023-04-10T04:51:07;101176.94;;;10.38;100.00
70407;BME280;57821;52.202;0.154;2023-04-10T04:54:16;101165.72;;;10.36;100.00
70407;BME280;57821;52.202;0.154;2023-04-10T04:57:20;101160.53;;;10.39;100.00
70407;BME280;57821;52.202;0.154;2023-04-10T05:00:22;101146.72;;;10.39;100.00
70407;BME280;57821;52.202;0.154;2023-04-10T05:03:25;101138.94;;;10.40;100.00
70407;BME280;57821;52.202;0.154;2023-04-10T05:06:20;101138.97;;;10.42;100.00
70407;BME280;57821;52.202;0.154;2023-04-10T05:09:26;101138.94;;;10.43;100.00
70407;BME280;57821;52.202;0.154;2023-04-10T05:12:35;101131.16;;;10.43;100.00
70407;BME280;57821;52.202;0.154;2023-04-10T05:15:36;101124.25;;;10.45;100.00
70407;BME280;57821;52.202;0.154;2023-04-10T05:18:46;101116.50;;;10.45;100.00
70407;BME280;57821;52.202;0.154;2023-04-10T05:21:45;101112.16;;;10.41;100.00
70407;BME280;57821;52.202;0.154;2023-04-10T05:24:50;101112.19;;;10.47;100.00
70407;BME280;57821;52.202;0.154;2023-04-10T05:28:07;101109.59;;;10.47;100.00
70407;BME280;57821;52.202;0.154;2023-04-10T05:31:12;101113.91;;;10.47;100.00
70407;BME280;57821;52.202;0.154;2023-04-10T05:34:14;101111.31;;;10.50;100.00
70407;BME280;57821;52.202;0.154;2023-04-10T05:37:20;101105.25;;;10.49;100.00
70407;BME280;57821;52.202;0.154;2023-04-10T05:40:26;101101.81;;;10.50;100.00
70407;BME280;57821;52.202;0.154;2023-04-10T05:43:48;101098.34;;;10.50;100.00
70407;BME280;57821;52.202;0.154;2023-04-10T05:47:10;101096.63;;;10.50;100.00
70407;BME280;57821;52.202;0.154;2023-04-10T05:49:57;101093.19;;;10.48;100.00
70407;BME280;57821;52.202;0.154;2023-04-10T05:53:16;101086.25;;;10.52;100.00
70407;BME280;57821;52.202;0.154;2023-04-10T05:56:26;101080.22;;;10.51;100.00
70407;BME280;57821;52.202;0.154;2023-04-10T05:59:42;101077.63;;;10.51;100.00
70407;BME280;57821;52.202;0.154;2023-04-10T06:03:02;101068.09;;;10.52;100.00
70407;BME280;57821;52.202;0.154;2023-04-10T06:05:51;101062.94;;;10.53;100.00
70407;BME280;57821;52.202;0.154;2023-04-10T06:08:38;101064.66;;;10.53;100.00
70407;BME280;57821;52.202;0.154;2023-04-10T06:11:25;101056.88;;;10.53;100.00
70407;BME280;57821;52.202;0.154;2023-04-10T06:14:14;101059.44;;;10.54;100.00
70407;BME280;57821;52.202;0.154;2023-04-10T06:17:04;101056.88;;;10.56;100.00
70407;BME280;57821;52.202;0.154;2023-04-10T06:19:51;101062.06;;;10.56;100.00
70407;BME280;57821;52.202;0.154;2023-04-10T06:22:37;101056.88;;;10.59;100.00
70407;BME280;57821;52.202;0.154;2023-04-10T06:25:24;101047.38;;;10.59;100.00
70407;BME280;57821;52.202;0.154;2023-04-10T06:27:51;101051.69;;;10.63;100.00
70407;BME280;57821;52.202;0.154;2023-04-10T06:30:18;101040.47;;;10.64;100.00
70407;BME280;57821;52.202;0.154;2023-04-10T06:32:45;101048.25;;;10.67;100.00
70407;BME280;57821;52.202;0.154;2023-04-10T06:35:12;101047.38;;;10.68;100.00
70407;BME280;57821;52.202;0.154;2023-04-10T06:37:38;101050.84;;;10.70;100.00
70407;BME280;57821;52.202;0.154;2023-04-10T06:40:10;101045.66;;;10.70;100.00
70407;BME280;57821;52.202;0.154;2023-04-10T06:42:37;101046.53;;;10.76;100.00
70407;BME280;57821;52.202;0.154;2023-04-10T06:45:11;101046.53;;;10.76;100.00
70407;BME280;57821;52.202;0.154;2023-04-10T06:47:38;101045.66;;;10.80;100.00
70407;BME280;57821;52.202;0.154;2023-04-10T06:50:05;101040.47;;;10.83;100.00
70407;BME280;57821;52.202;0.154;2023-04-10T06:52:31;101037.00;;;10.84;100.00
70407;BME280;57821;52.202;0.154;2023-04-10T06:54:58;101023.19;;;10.83;100.00
70407;BME280;57821;52.202;0.154;2023-04-10T06:57:25;101021.44;;;10.87;100.00
70407;BME280;57821;52.202;0.154;2023-04-10T06:59:51;101018.84;;;10.88;100.00
70407;BME280;57821;52.202;0.154;2023-04-10T07:02:18;101019.72;;;10.87;100.00
70407;BME280;57821;52.202;0.154;2023-04-10T07:04:45;101017.13;;;10.89;100.00
70407;BME280;57821;52.202;0.154;2023-04-10T07:07:11;101018.84;;;10.90;100.00
70407;BME280;57821;52.202;0.154;2023-04-10T07:09:38;101020.56;;;10.91;100.00
70407;BME280;57821;52.202;0.154;2023-04-10T07:12:05;101017.13;;;10.92;100.00
70407;BME280;57821;52.202;0.154;2023-04-10T07:14:32;101022.31;;;10.93;100.00
70407;BME280;57821;52.202;0.154;2023-04-10T07:16:59;101006.75;;;10.93;100.00
70407;BME280;57821;52.202;0.154;2023-04-10T07:19:25;101011.06;;;10.93;100.00
70407;BME280;57821;52.202;0.154;2023-04-10T07:21:52;101008.47;;;10.91;100.00
70407;BME280;57821;52.202;0.154;2023-04-10T07:24:18;101006.72;;;10.92;100.00
70407;BME280;57821;52.202;0.154;2023-04-10T07:26:45;101007.59;;;10.92;100.00
70407;BME280;57821;52.202;0.154;2023-04-10T07:29:12;100993.75;;;10.92;100.00
70407;BME280;57821;52.202;0.154;2023-04-10T07:31:39;100992.03;;;10.92;100.00
70407;BME280;57821;52.202;0.154;2023-04-10T07:34:05;100984.25;;;10.92;100.00
70407;BME280;57821;52.202;0.154;2023-04-10T07:36:32;100985.13;;;10.93;100.00
70407;BME280;57821;52.202;0.154;2023-04-10T07:38:59;100986.00;;;10.93;100.00
70407;BME280;57821;52.202;0.154;2023-04-10T07:41:25;100978.22;;;10.95;100.00
70407;BME280;57821;52.202;0.154;2023-04-10T07:43:52;100968.69;;;10.98;100.00
70407;BME280;57821;52.202;0.154;2023-04-10T07:46:18;100970.41;;;10.99;100.00
70407;BME280;57821;52.202;0.154;2023-04-10T07:48:45;100964.34;;;11.05;100.00
70407;BME280;57821;52.202;0.154;2023-04-10T07:51:12;100949.66;;;11.05;100.00
70407;BME280;57821;52.202;0.154;2023-04-10T07:53:38;100960.88;;;11.09;100.00
70407;BME280;57821;52.202;0.154;2023-04-10T07:56:06;100948.75;;;11.11;100.00
70407;BME280;57821;52.202;0.154;2023-04-10T07:58:32;100940.97;;;11.11;100.00
70407;BME280;57821;52.202;0.154;2023-04-10T08:00:59;100934.06;;;11.11;100.00
70407;BME280;57821;52.202;0.154;2023-04-10T08:03:26;100925.38;;;11.12;100.00
70407;BME280;57821;52.202;0.154;2023-04-10T08:05:54;100922.78;;;11.14;100.00
70407;BME280;57821;52.202;0.154;2023-04-10T08:08:20;100921.06;;;11.16;100.00
70407;BME280;57821;52.202;0.154;2023-04-10T08:10:47;100909.81;;;11.17;100.00
70407;BME280;57821;52.202;0.154;2023-04-10T08:13:13;100909.78;;;11.19;100.00
70407;BME280;57821;52.202;0.154;2023-04-10T08:15:40;100898.53;;;11.20;100.00
70407;BME280;57821;52.202;0.154;2023-04-10T08:18:06;100892.50;;;11.24;100.00
70407;BME280;57821;52.202;0.154;2023-04-10T08:20:33;100893.34;;;11.29;100.00
70407;BME280;57821;52.202;0.154;2023-04-10T08:23:00;100885.50;;;11.30;100.00
70407;BME280;57821;52.202;0.154;2023-04-10T08:25:45;100877.72;;;11.35;100.00
70407;BME280;57821;52.202;0.154;2023-04-10T08:28:12;100882.03;;;11.37;100.00
70407;BME280;57821;52.202;0.154;2023-04-10T08:30:38;100877.69;;;11.39;100.00
70407;BME280;57821;52.202;0.154;2023-04-10T08:33:05;100865.59;;;11.38;100.00
70407;BME280;57821;52.202;0.154;2023-04-10T08:35:31;100874.22;;;11.43;100.00
70407;BME280;57821;52.202;0.154;2023-04-10T08:37:58;100864.69;;;11.42;100.00
70407;BME280;57821;52.202;0.154;2023-04-10T08:40:38;100862.09;;;11.42;100.00
70407;BME280;57821;52.202;0.154;2023-04-10T08:43:05;100859.50;;;11.44;100.00
70407;BME280;57821;52.202;0.154;2023-04-10T08:45:32;100852.56;;;11.44;100.00
70407;BME280;57821;52.202;0.154;2023-04-10T08:48:01;100831.84;;;11.41;100.00
70407;BME280;57821;52.202;0.154;2023-04-10T08:50:30;100837.03;;;11.41;100.00
70407;BME280;57821;52.202;0.154;2023-04-10T08:53:04;100840.44;;;11.46;100.00
70407;BME280;57821;52.202;0.154;2023-04-10T08:55:34;100833.53;;;11.45;100.00
70407;BME280;57821;52.202;0.154;2023-04-10T08:58:01;100830.03;;;11.48;100.00
70407;BME280;57821;52.202;0.154;2023-04-10T09:00:28;100823.97;;;11.47;100.00
70407;BME280;57821;52.202;0.154;2023-04-10T09:02:54;100814.50;;;11.46;100.00
70407;BME280;57821;52.202;0.154;2023-04-10T09:05:23;100807.56;;;11.45;100.00
70407;BME280;57821;52.202;0.154;2023-04-10T09:07:50;100802.38;;;11.45;100.00
70407;BME280;57821;52.202;0.154;2023-04-10T09:10:16;100797.19;;;11.47;100.00
70407;BME280;57821;52.202;0.154;2023-04-10T09:12:44;100792.00;;;11.47;100.00
70407;BME280;57821;52.202;0.154;2023-04-10T09:15:11;100799.75;;;11.48;100.00
70407;BME280;57821;52.202;0.154;2023-04-10T09:17:53;100788.53;;;11.46;100.00
70407;BME280;57821;52.202;0.154;2023-04-10T09:20:21;100789.34;;;11.48;100.00
70407;BME280;57821;52.202;0.154;2023-04-10T09:22:48;100782.44;;;11.47;100.00
70407;BME280;57821;52.202;0.154;2023-04-10T09:25:35;100763.47;;;11.36;100.00
70407;BME280;57821;52.202;0.154;2023-04-10T09:28:06;100770.41;;;11.37;100.00
70407;BME280;57821;52.202;0.154;2023-04-10T09:30:41;100756.63;;;11.26;100.00
70407;BME280;57821;52.202;0.154;2023-04-10T09:33:24;100761.78;;;11.32;100.00
70407;BME280;57821;52.202;0.154;2023-04-10T09:35:51;100753.13;;;11.30;100.00
70407;BME280;57821;52.202;0.154;2023-04-10T09:38:20;100753.13;;;11.30;100.00
70407;BME280;57821;52.202;0.154;2023-04-10T09:40:47;100751.41;;;11.31;100.00
70407;BME280;57821;52.202;0.154;2023-04-10T09:45:49;100755.72;;;11.32;100.00
70407;BME280;57821;52.202;0.154;2023-04-10T09:48:15;100746.22;;;11.32;100.00
70407;BME280;57821;52.202;0.154;2023-04-10T09:50:42;100749.66;;;11.34;100.00
70407;BME280;57821;52.202;0.154;2023-04-10T09:53:14;100745.34;;;11.35;100.00
70407;BME280;57821;52.202;0.154;2023-04-10T09:55:42;100739.28;;;11.34;100.00
70407;BME280;57821;52.202;0.154;2023-04-10T09:58:09;100743.59;;;11.35;100.00
70407;BME280;57821;52.202;0.154;2023-04-10T10:00:39;100730.63;;;11.35;100.00
70407;BME280;57821;52.202;0.154;2023-04-10T10:03:14;100726.25;;;11.39;100.00
70407;BME280;57821;52.202;0.154;2023-04-10T10:05:43;100731.44;;;11.40;100.00
70407;BME280;57821;52.202;0.154;2023-04-10T10:08:11;100721.91;;;11.42;100.00
70407;BME280;57821;52.202;0.154;2023-04-10T10:10:46;100710.69;;;11.40;100.00
70407;BME280;57821;52.202;0.154;2023-04-10T10:16:14;100687.22;;;11.49;100.00
70407;BME280;57821;52.202;0.154;2023-04-10T10:18:47;100705.34;;;11.59;100.00
70407;BME280;57821;52.202;0.154;2023-04-10T10:21:17;100696.63;;;11.63;100.00
70407;BME280;57821;52.202;0.154;2023-04-10T10:23:46;100685.38;;;11.64;100.00
70407;BME280;57821;52.202;0.154;2023-04-10T10:26:14;100697.41;;;11.71;100.00
70407;BME280;57821;52.202;0.154;2023-04-10T10:28:41;100687.03;;;11.74;100.00
70407;BME280;57821;52.202;0.154;2023-04-10T10:31:09;100693.91;;;11.78;100.00
70407;BME280;57821;52.202;0.154;2023-04-10T10:33:36;100683.53;;;11.81;100.00
70407;BME280;57821;52.202;0.154;2023-04-10T10:36:03;100682.59;;;11.85;100.00
70407;BME280;57821;52.202;0.154;2023-04-10T10:38:31;100666.09;;;11.89;100.00
70407;BME280;57821;52.202;0.154;2023-04-10T10:41:37;100653.91;;;11.96;100.00
70407;BME280;57821;52.202;0.154;2023-04-10T10:44:18;100659.03;;;12.00;100.00
70407;BME280;57821;52.202;0.154;2023-04-10T10:46:49;100644.31;;;12.04;100.00
70407;BME280;57821;52.202;0.154;2023-04-10T10:49:17;100641.56;;;12.14;100.00
70407;BME280;57821;52.202;0.154;2023-04-10T10:51:49;100644.09;;;12.19;100.00
70407;BME280;57821;52.202;0.154;2023-04-10T10:54:30;100630.22;;;12.21;100.00
70407;BME280;57821;52.202;0.154;2023-04-10T10:56:57;100638.81;;;12.26;100.00
70407;BME280;57821;52.202;0.154;2023-04-10T11:02:13;100621.56;;;12.21;100.00
70407;BME280;57821;52.202;0.154;2023-04-10T11:04:45;100628.44;;;12.25;100.00
70407;BME280;57821;52.202;0.154;2023-04-10T11:07:12;100618.91;;;12.25;100.00
70407;BME280;57821;52.202;0.154;2023-04-10T11:09:51;100621.50;;;12.27;100.00
70407;BME280;57821;52.202;0.154;2023-04-10T11:12:23;100603.31;;;12.24;100.00
70407;BME280;57821;52.202;0.154;2023-04-10T11:15:00;100611.00;;;12.33;100.00
70407;BME280;57821;52.202;0.154;2023-04-10T11:17:50;100600.63;;;12.31;100.00
70407;BME280;57821;52.202;0.154;2023-04-10T11:20:19;100616.19;;;12.34;100.00
70407;BME280;57821;52.202;0.154;2023-04-10T11:23:05;100609.28;;;12.33;100.00
70407;BME280;57821;52.202;0.154;2023-04-10T11:25:49;100604.97;;;12.29;100.00
70407;BME280;57821;52.202;0.154;2023-04-10T11:33:47;100636.88;;;12.41;100.00
70407;BME280;57821;52.202;0.154;2023-04-10T11:36:15;100631.69;;;12.41;100.00
70407;BME280;57821;52.202;0.154;2023-04-10T11:39:07;100622.16;;;12.43;100.00
70407;BME280;57821;52.202;0.154;2023-04-10T11:41:36;100616.91;;;12.46;100.00
70407;BME280;57821;52.202;0.154;2023-04-10T11:44:05;100615.06;;;12.54;100.00
70407;BME280;57821;52.202;0.154;2023-04-10T11:46:36;100613.13;;;12.68;100.00
70407;BME280;57821;52.202;0.154;2023-04-10T11:49:04;100609.47;;;12.81;100.00
70407;BME280;57821;52.202;0.154;2023-04-10T11:51:31;100594.34;;;13.04;100.00
70407;BME280;57821;52.202;0.154;2023-04-10T11:54:12;100582.72;;;13.27;100.00
70407;BME280;57821;52.202;0.154;2023-04-10T11:56:42;100587.44;;;13.54;100.00
70407;BME280;57821;52.202;0.154;2023-04-10T11:59:09;100587.22;;;13.66;100.00
70407;BME280;57821;52.202;0.154;2023-04-10T12:01:38;100587.22;;;13.66;100.00
70407;BME280;57821;52.202;0.154;2023-04-10T12:04:15;100582.84;;;13.68;100.00
70407;BME280;57821;52.202;0.154;2023-04-10T12:06:54;100585.44;;;13.68;100.00
70407;BME280;57821;52.202;0.154;2023-04-10T12:09:21;100585.25;;;13.77;100.00
70407;BME280;57821;52.202;0.154;2023-04-10T12:11:53;100579.72;;;13.92;100.00
70407;BME280;57821;52.202;0.154;2023-04-10T12:14:21;100593.41;;;14.04;100.00
70407;BME280;57821;52.202;0.154;2023-04-10T12:16:51;100591.47;;;14.15;100.00
70407;BME280;57821;52.202;0.154;2023-04-10T12:19:17;100593.03;;;14.22;100.00
70407;BME280;57821;52.202;0.154;2023-04-10T12:21:45;100582.53;;;14.25;100.00
70407;BME280;57821;52.202;0.154;2023-04-10T12:24:11;100577.31;;;14.25;100.00
70407;BME280;57821;52.202;0.154;2023-04-10T12:26:46;100565.16;;;14.25;100.00
70407;BME280;57821;52.202;0.154;2023-04-10T12:29:13;100574.56;;;14.32;100.00
70407;BME280;57821;52.202;0.154;2023-04-10T12:31:39;100550.22;;;14.32;100.00
70407;BME280;57821;52.202;0.154;2023-04-10T12:34:06;100563.09;;;14.41;100.00
70407;BME280;57821;52.202;0.154;2023-04-10T12:36:36;100571.63;;;14.48;100.00
70407;BME280;57821;52.202;0.154;2023-04-10T12:39:03;100549.06;;;14.45;100.00
70407;BME280;57821;52.202;0.154;2023-04-10T12:41:32;100561.38;;;14.40;100.00
70407;BME280;57821;52.202;0.154;2023-04-10T12:44:10;100531.78;;;14.41;100.00
70407;BME280;57821;52.202;0.154;2023-04-10T12:46:37;100553.06;;;14.61;100.00
70407;BME280;57821;52.202;0.154;2023-04-10T12:49:22;100523.09;;;14.77;100.00
70407;BME280;57821;52.202;0.154;2023-04-10T12:51:50;100536.72;;;14.90;100.00
70407;BME280;57821;52.202;0.154;2023-04-10T12:54:31;100532.34;;;14.91;100.00
70407;BME280;57821;52.202;0.154;2023-04-10T12:56:59;100528.66;;;14.98;100.00
70407;BME280;57821;52.202;0.154;2023-04-10T12:59:26;100533.22;;;14.90;100.00
70407;BME280;57821;52.202;0.154;2023-04-10T13:01:53;100531.69;;;14.81;99.74
70407;BME280;57821;52.202;0.154;2023-04-10T13:04:20;100518.75;;;14.76;99.35
70407;BME280;57821;52.202;0.154;2023-04-10T13:06:47;100524.75;;;14.80;98.88
70407;BME280;57821;52.202;0.154;2023-04-10T13:09:14;100512.44;;;14.85;99.41
70407;BME280;57821;52.202;0.154;2023-04-10T13:11:41;100511.22;;;15.00;99.33
70407;BME280;57821;52.202;0.154;2023-04-10T13:14:08;100521.16;;;15.19;100.00
70407;BME280;57821;52.202;0.154;2023-04-10T13:16:34;100501.56;;;15.36;97.52
70407;BME280;57821;52.202;0.154;2023-04-10T13:19:01;100533.63;;;15.41;89.68
70407;BME280;57821;52.202;0.154;2023-04-10T13:21:28;100515.22;;;15.45;96.99
70407;BME280;57821;52.202;0.154;2023-04-10T13:23:55;100521.16;;;15.52;89.78
70407;BME280;57821;52.202;0.154;2023-04-10T13:26:22;100507.97;;;15.56;92.83
70407;BME280;57821;52.202;0.154;2023-04-10T13:28:49;100524.38;;;15.61;90.58
70407;BME280;57821;52.202;0.154;2023-04-10T13:31:15;100507.63;;;15.69;90.87
70407;BME280;57821;52.202;0.154;2023-04-10T13:33:46;100518.00;;;15.72;87.17
70407;BME280;57821;52.202;0.154;2023-04-10T13:36:13;100501.38;;;15.74;86.15
70407;BME280;57821;52.202;0.154;2023-04-10T13:38:40;100524.75;;;15.79;88.17
70407;BME280;57821;52.202;0.154;2023-04-10T13:41:07;100499.41;;;15.82;82.46
70407;BME280;57821;52.202;0.154;2023-04-10T13:43:33;100503.81;;;15.80;81.86
70407;BME280;57821;52.202;0.154;2023-04-10T13:46:00;100491.63;;;15.79;81.36
70407;BME280;57821;52.202;0.154;2023-04-10T13:48:26;100482.09;;;15.78;86.07
70407;BME280;57821;52.202;0.154;2023-04-10T13:51:05;100485.44;;;15.83;77.01
70407;BME280;57821;52.202;0.154;2023-04-10T13:53:32;100474.59;;;15.95;83.26
70407;BME280;57821;52.202;0.154;2023-04-10T13:55:58;100478.44;;;16.13;75.36
70407;BME280;57821;52.202;0.154;2023-04-10T13:58:25;100478.13;;;16.22;74.72
70407;BME280;57821;52.202;0.154;2023-04-10T14:00:51;100460.53;;;16.27;68.80
70407;BME280;57821;52.202;0.154;2023-04-10T14:03:18;100458.81;;;16.26;72.27
70407;BME280;57821;52.202;0.154;2023-04-10T14:05:44;100466.22;;;16.40;72.45
70407;BME280;57821;52.202;0.154;2023-04-10T14:08:11;100476.19;;;16.55;74.89
70407;BME280;57821;52.202;0.154;2023-04-10T14:10:37;100464.91;;;16.81;77.31